Airfield :
LOGIN :

Register | Disclaimer

   EN    FR    IT 

 










Legend :    VFR   Marginal VFR   IFR   Intensive IFR   Very Intensive IFR
Visi :
Ceiling :
>= 8 km
>= 3000ft
5 to 8 km
1000 to 3000 ft
1500m to 5 km
500 to 1000 ft
800 to 1500m
200 to 500 ft
< 800m
< 200 ft
Symbols :   Thunderstorms  Fog  Heavy snow  Heavy precipitations  Wind > 20 kt
SIGMETs :     Misc.  Thunderstorms  Icing  Turbulence  Mountain Waves  Volcanic Ashes







- Airport Elevation : 681 ft
- IATA code : LBA
- Download approach charts


EGNM - Leeds Bradford

CURRENT METAR :
  • 251820Z 21010KT 180V250 CAVOK 13/05 Q1031

EXPIRED METARs :
  • 251750Z 22011KT 190V250 CAVOK 13/05 Q1031
  • 251720Z 22011KT CAVOK 14/05 Q1031
  • 251650Z 22013KT 180V260 CAVOK 14/05 Q1031
  • 251620Z 23012KT 200V270 CAVOK 15/05 Q1031
  • 251550Z 22014KT 190V260 CAVOK 15/04 Q1032

TAF TAF EGNM
Valid from the 25 at 18:00 until the 26 at 18:00 UTC


251656Z 2518/2618 22012KT 9999 FEW035
PROB40
TEMPO 2518/2524 23015G25KT
BECMG 2600/2603 26018G30KT
PROB40
TEMPO 2603/2612 27028G43KT
PROB30
TEMPO 2606/2618 8000 -RA BKN010
BECMG 2612/2615 27012KT
TEMPO 2615/2618 27015G25KT
ATIS : +44 113 250 9696 (x2489)
No reported NOTAMs for that airfield.
1 SIGMET reported for the London FIR (EGTT) :
 
Severe mountain waves
EGTT SIGMET 01 VALID 251800/252200 EGRR
EGTT LONDON FIR SEV MTW FCST WI N5421 W00004 - N5311 W00204 - N5500 W00356 - N5500 W00100 - N5500 W00021 - N5421 W00004 FL030/200 STNR NC=



MET'MAP, your aeronautical weather chart ! - Copyright ORBIFLY December 2007 - Disclaimer

ORBIFLY MET'MAP TEAM :

Programming & Development : Alexandra Zaïnal
Concept & Development : Baudouin d'Aumeries
Co-Development & Prog : Marc-Olivier Méhu
Technical & hardware support : Manuel Goepfert

Contact : metmap@orbifly.com




SOURCES & CREDITS :

   NOAA